createdAt,value
2018-11-23T00:01:22.036Z,59.87
2018-11-23T00:06:45.253Z,58.83
2018-11-23T00:11:49.819Z,61.87
2018-11-23T00:16:54.363Z,61.93
2018-11-23T00:21:58.976Z,64.13
2018-11-23T00:27:03.524Z,62.10
2018-11-23T00:32:08.056Z,61.47
2018-11-23T00:37:12.601Z,63.53
2018-11-23T00:42:17.130Z,61.00
2018-11-23T00:47:21.709Z,63.10
2018-11-23T00:52:26.565Z,64.93
2018-11-23T00:57:31.136Z,63.70
2018-11-23T01:02:35.711Z,58.87
2018-11-23T01:07:58.940Z,63.90
2018-11-23T01:13:03.497Z,67.67
2018-11-23T01:18:08.054Z,63.17
2018-11-23T01:23:12.692Z,64.05
2018-11-23T01:28:17.230Z,66.63
2018-11-23T01:33:21.766Z,70.60
2018-11-23T01:38:26.347Z,64.33
2018-11-23T01:43:30.907Z,63.53
2018-11-23T01:48:35.462Z,63.60
2018-11-23T01:53:40.017Z,66.40
2018-11-23T01:58:44.559Z,71.20
2018-11-23T02:03:49.100Z,61.80
2018-11-23T02:08:53.649Z,71.90
2018-11-23T02:13:58.215Z,69.47
2018-11-23T02:19:02.844Z,69.07
2018-11-23T02:24:07.349Z,67.03
2018-11-23T02:29:11.963Z,63.30
2018-11-23T02:34:16.431Z,66.70
2018-11-23T02:39:20.993Z,68.37
2018-11-23T02:44:25.586Z,67.47
2018-11-23T02:49:30.199Z,61.40
2018-11-23T02:54:34.778Z,59.60
2018-11-23T02:59:39.302Z,64.73
2018-11-23T03:04:43.842Z,63.27
2018-11-23T03:09:48.380Z,60.63
2018-11-23T03:14:52.977Z,60.67
2018-11-23T03:19:57.608Z,59.37
2018-11-23T03:25:20.821Z,60.23
2018-11-23T03:30:25.385Z,62.90
2018-11-23T03:35:30.029Z,56.00
2018-11-23T03:40:34.564Z,57.43
2018-11-23T03:45:39.106Z,61.67
2018-11-23T03:50:43.644Z,60.30
2018-11-23T03:55:48.170Z,62.10
2018-11-23T04:00:52.790Z,63.40
2018-11-23T04:05:57.285Z,60.43
2018-11-23T04:11:01.825Z,61.50
2018-11-23T04:16:06.607Z,61.80
2018-11-23T04:21:11.105Z,63.97
2018-11-23T04:26:34.658Z,61.83
2018-11-23T04:31:39.272Z,62.30
2018-11-23T04:37:02.817Z,57.13
2018-11-23T04:42:07.679Z,56.93
2018-11-23T04:47:12.339Z,62.20
2018-11-23T04:52:16.917Z,54.77
2018-11-23T04:57:21.516Z,59.00
2018-11-23T05:02:26.135Z,62.27
2018-11-23T05:07:49.398Z,59.30
2018-11-23T05:13:12.621Z,53.50
2018-11-23T05:18:17.209Z,53.47
2018-11-23T05:23:21.762Z,55.10
2018-11-23T05:28:26.326Z,57.53
2018-11-23T05:33:30.875Z,58.33
2018-11-23T05:38:35.380Z,61.93
2018-11-23T05:43:39.947Z,53.73
2018-11-23T05:48:44.556Z,47.43
2018-11-23T05:53:49.118Z,55.40
2018-11-23T05:58:57.425Z,52.43
2018-11-23T06:04:20.908Z,54.30
2018-11-23T06:09:25.553Z,55.23
2018-11-23T06:14:30.053Z,51.10
2018-11-23T06:19:34.604Z,54.07
2018-11-23T06:24:39.128Z,54.27
2018-11-23T06:29:43.748Z,53.43
2018-11-23T06:34:48.300Z,54.10
2018-11-23T06:39:53.081Z,57.83
2018-11-23T06:45:16.685Z,53.73
2018-11-23T06:50:21.209Z,54.47
2018-11-23T06:55:44.731Z,52.07
2018-11-23T07:01:08.274Z,48.67
2018-11-23T07:06:31.885Z,53.27
2018-11-23T07:11:36.464Z,48.87
2018-11-23T07:16:41.027Z,49.20
2018-11-23T07:21:45.661Z,48.47
2018-11-23T07:26:50.129Z,47.90
2018-11-23T07:32:13.501Z,48.20
2018-11-23T07:37:18.107Z,49.47
2018-11-23T07:42:27.040Z,48.33
2018-11-23T07:47:50.561Z,45.00
2018-11-23T07:52:55.147Z,48.17
2018-11-23T07:57:59.769Z,46.37
2018-11-23T08:03:04.298Z,42.90
2018-11-23T08:08:08.958Z,46.20
2018-11-23T08:13:13.511Z,47.80
2018-11-23T08:23:41.971Z,44.77
2018-11-23T08:28:46.576Z,45.53
2018-11-23T08:33:51.160Z,46.63
2018-11-23T08:38:55.757Z,45.00
2018-11-23T08:44:00.385Z,38.00
2018-11-23T08:49:23.867Z,37.90
2018-11-23T08:54:47.129Z,40.77
2018-11-23T08:59:51.812Z,39.40
2018-11-23T09:04:56.353Z,41.80
2018-11-23T09:10:19.641Z,40.47
2018-11-23T09:15:24.208Z,40.37
2018-11-23T09:20:47.526Z,38.50
2018-11-23T09:26:11.073Z,37.60
2018-11-23T09:31:34.343Z,36.60
2018-11-23T09:36:38.956Z,35.80
2018-11-23T09:41:43.462Z,35.57
2018-11-23T09:46:48.023Z,35.77
2018-11-23T09:51:52.661Z,34.57
2018-11-23T09:56:57.158Z,34.77
2018-11-23T10:02:01.763Z,37.63
2018-11-23T10:07:06.873Z,36.50
2018-11-23T10:12:30.435Z,33.30
2018-11-23T10:17:53.970Z,33.43
2018-11-23T10:23:17.549Z,32.20
2018-11-23T10:28:41.399Z,30.60
2018-11-23T10:34:04.768Z,24.87
2018-11-23T10:39:47.083Z,25.63
2018-11-23T10:44:51.716Z,22.43
2018-11-23T10:49:56.303Z,27.03
2018-11-23T10:55:24.309Z,24.30
2018-11-23T11:00:47.709Z,24.60
2018-11-23T11:06:10.931Z,24.07
2018-11-23T11:11:15.626Z,21.17
2018-11-23T11:16:20.162Z,20.47
2018-11-23T11:21:24.728Z,23.80
2018-11-23T11:26:29.472Z,22.07
2018-11-23T11:31:34.016Z,21.43
2018-11-23T11:36:38.552Z,22.90
2018-11-23T11:41:43.262Z,23.93
2018-11-23T11:46:47.930Z,22.30
2018-11-23T11:51:52.514Z,23.80
2018-11-23T11:56:57.472Z,21.67
2018-11-23T12:02:02.110Z,21.87
2018-11-23T12:07:07.099Z,23.77
2018-11-23T12:12:11.655Z,23.03
2018-11-23T12:17:35.188Z,21.40
2018-11-23T12:22:58.662Z,24.00
2018-11-23T12:28:03.671Z,22.83
2018-11-23T12:33:08.374Z,23.30
2018-11-23T12:38:12.961Z,24.20
2018-11-23T12:43:17.849Z,26.63
2018-11-23T12:48:41.256Z,28.50
2018-11-23T12:53:45.796Z,28.57
2018-11-23T12:58:50.377Z,26.07
2018-11-23T13:03:55.000Z,26.07
2018-11-23T13:09:18.516Z,25.33
2018-11-23T13:14:42.085Z,26.83
2018-11-23T13:25:36.232Z,29.10
2018-11-23T13:30:40.872Z,32.70
2018-11-23T13:35:45.409Z,32.37
2018-11-23T13:40:49.948Z,31.97
2018-11-23T13:45:54.509Z,36.17
2018-11-23T13:50:58.993Z,35.87
2018-11-23T13:56:03.793Z,37.20
2018-11-23T14:01:08.381Z,38.55
2018-11-23T14:06:13.115Z,36.80
2018-11-23T14:11:17.679Z,37.03
2018-11-23T14:16:22.299Z,35.90
2018-11-23T14:21:45.808Z,35.50
2018-11-23T14:26:50.369Z,30.95
2018-11-23T14:31:55.373Z,34.50
2018-11-23T14:36:59.975Z,35.47
2018-11-23T14:42:23.389Z,35.87
2018-11-23T14:47:27.952Z,36.37
2018-11-23T14:52:32.591Z,34.95
2018-11-23T14:57:56.471Z,31.43
2018-11-23T15:03:02.007Z,32.87
2018-11-23T15:08:06.789Z,33.57
2018-11-23T15:13:32.439Z,32.23
2018-11-23T15:18:56.027Z,29.83
2018-11-23T15:24:19.566Z,31.73
2018-11-23T15:29:24.124Z,30.70
2018-11-23T15:34:28.816Z,30.47
2018-11-23T15:39:33.370Z,31.03
2018-11-23T15:44:37.965Z,32.90
2018-11-23T15:49:42.909Z,33.77
2018-11-23T15:54:47.455Z,33.77
2018-11-23T15:59:52.033Z,32.40
2018-11-23T16:04:56.587Z,34.80
2018-11-23T16:10:19.808Z,34.93
2018-11-23T16:15:25.052Z,34.83
2018-11-23T16:20:49.688Z,36.10
2018-11-23T16:25:54.268Z,33.03
2018-11-23T16:30:58.862Z,51.53
2018-11-23T16:36:03.413Z,32.97
2018-11-23T16:41:08.106Z,31.97
2018-11-23T16:46:12.780Z,33.30
2018-11-23T16:51:17.472Z,33.27
2018-11-23T16:56:22.168Z,32.03
2018-11-23T17:01:26.772Z,36.10
2018-11-23T17:06:31.406Z,33.47
2018-11-23T17:11:36.026Z,31.07
2018-11-23T17:16:40.847Z,30.63
2018-11-23T17:22:04.082Z,31.70
2018-11-23T17:27:08.616Z,31.13
2018-11-23T17:32:13.193Z,34.07
2018-11-23T17:37:17.972Z,28.13
2018-11-23T17:42:22.744Z,32.07
2018-11-23T17:47:27.348Z,30.80
2018-11-23T17:52:31.973Z,29.93
2018-11-23T17:57:36.694Z,30.20
2018-11-23T18:03:01.224Z,30.27
2018-11-23T18:08:06.409Z,28.32
2018-11-23T18:13:11.032Z,27.17
2018-11-23T18:18:34.560Z,27.87
2018-11-23T18:23:39.167Z,27.80
2018-11-23T18:28:43.690Z,27.10
2018-11-23T18:33:48.365Z,27.13
2018-11-23T18:38:52.931Z,27.60
2018-11-23T18:43:57.552Z,31.73
2018-11-23T18:49:02.076Z,29.13
2018-11-23T18:54:06.693Z,60.50
2018-11-23T18:59:11.299Z,44.27
2018-11-23T19:04:15.942Z,28.67
2018-11-23T19:09:20.472Z,25.13
2018-11-23T19:14:25.055Z,22.43
2018-11-23T19:19:29.590Z,24.10
2018-11-23T19:24:34.637Z,22.17
2018-11-23T19:29:39.744Z,21.03
2018-11-23T19:34:44.327Z,23.13
2018-11-23T19:39:49.038Z,25.60
2018-11-23T19:44:53.749Z,22.33
2018-11-23T19:49:58.333Z,24.33
2018-11-23T19:55:21.701Z,26.10
2018-11-23T20:00:27.406Z,22.43
2018-11-23T20:05:32.028Z,21.57
2018-11-23T20:10:36.706Z,20.10
2018-11-23T20:15:41.264Z,23.00
2018-11-23T20:20:46.120Z,23.43
2018-11-23T20:25:50.782Z,22.37
2018-11-23T20:31:02.819Z,23.27
2018-11-23T20:36:07.581Z,20.70
2018-11-23T20:41:12.347Z,19.70
2018-11-23T20:46:17.011Z,22.80
2018-11-23T20:51:21.652Z,18.20
2018-11-23T20:56:26.287Z,19.27
2018-11-23T21:01:30.866Z,18.87
2018-11-23T21:06:54.160Z,21.20
2018-11-23T21:11:58.832Z,19.37
2018-11-23T21:17:03.396Z,19.27
2018-11-23T21:22:07.997Z,19.70
2018-11-23T21:27:12.545Z,19.47
2018-11-23T21:32:17.094Z,19.87
2018-11-23T21:37:21.659Z,19.27
2018-11-23T21:42:26.176Z,18.47
2018-11-23T21:47:30.787Z,18.93
2018-11-23T21:52:35.336Z,20.77
2018-11-23T21:57:39.883Z,18.67
2018-11-23T22:02:44.451Z,17.90
2018-11-23T22:07:49.093Z,16.23
2018-11-23T22:12:53.623Z,16.80
2018-11-23T22:17:58.639Z,18.77
2018-11-23T22:23:03.195Z,18.83
2018-11-23T22:28:07.733Z,20.50
2018-11-23T22:33:31.246Z,20.73
2018-11-23T22:38:35.849Z,18.33
2018-11-23T22:43:40.414Z,18.63
2018-11-23T22:49:04.173Z,17.50
2018-11-23T22:54:08.727Z,20.50
2018-11-23T22:59:32.269Z,19.97
2018-11-23T23:04:36.880Z,21.57
2018-11-23T23:10:00.369Z,23.00
2018-11-23T23:15:23.664Z,21.30
2018-11-23T23:20:28.215Z,21.67
2018-11-23T23:25:32.862Z,19.87
2018-11-23T23:30:37.500Z,21.20
2018-11-23T23:36:00.672Z,19.57
2018-11-23T23:41:05.186Z,18.63
2018-11-23T23:46:09.795Z,19.73
2018-11-23T23:51:14.403Z,19.87
2018-11-23T23:56:18.945Z,20.07
